createdAt,value
2023-05-07T00:01:20.303Z,4.60
2023-05-07T00:03:47.980Z,5.22
2023-05-07T00:06:16.284Z,4.88
2023-05-07T00:08:43.573Z,5.43
2023-05-07T00:11:11.258Z,6.75
2023-05-07T00:13:38.613Z,7.32
2023-05-07T00:16:06.405Z,5.43
2023-05-07T00:18:33.736Z,7.75
2023-05-07T00:21:01.611Z,7.07
2023-05-07T00:23:29.129Z,5.88
2023-05-07T00:25:56.768Z,5.53
2023-05-07T00:28:24.062Z,4.93
2023-05-07T00:30:51.740Z,4.43
2023-05-07T00:33:19.095Z,4.53
2023-05-07T00:35:46.697Z,4.47
2023-05-07T00:38:14.209Z,4.25
2023-05-07T00:40:41.802Z,4.38
2023-05-07T00:43:09.884Z,4.50
2023-05-07T00:45:37.500Z,8.80
2023-05-07T00:48:05.340Z,3.75
2023-05-07T00:50:34.120Z,4.15
2023-05-07T00:53:01.860Z,6.05
2023-05-07T00:55:29.997Z,4.53
2023-05-07T00:57:57.384Z,4.05
2023-05-07T01:00:26.158Z,4.40
2023-05-07T01:02:54.384Z,3.63
2023-05-07T01:05:24.208Z,3.58
2023-05-07T01:07:53.884Z,3.40
2023-05-07T01:10:21.649Z,3.95
2023-05-07T01:12:49.477Z,3.40
2023-05-07T01:15:17.402Z,3.80
2023-05-07T01:17:44.810Z,4.00
2023-05-07T01:20:13.051Z,3.40
2023-05-07T01:22:40.881Z,3.17
2023-05-07T01:25:09.209Z,3.45
2023-05-07T01:27:38.064Z,4.03
2023-05-07T01:30:06.302Z,3.63
2023-05-07T01:32:35.411Z,3.40
2023-05-07T01:35:04.487Z,4.22
2023-05-07T01:37:31.800Z,5.13
2023-05-07T01:39:59.462Z,3.63
2023-05-07T01:42:26.732Z,3.30
2023-05-07T01:44:54.387Z,3.50
2023-05-07T01:47:22.425Z,3.35
2023-05-07T01:49:50.745Z,4.20
2023-05-07T01:52:18.224Z,4.15
2023-05-07T01:54:46.129Z,3.92
2023-05-07T01:57:13.486Z,3.33
2023-05-07T01:59:41.083Z,3.42
2023-05-07T02:02:08.608Z,4.53
2023-05-07T02:04:36.356Z,4.47
2023-05-07T02:07:03.657Z,3.70
2023-05-07T02:09:31.335Z,3.85
2023-05-07T02:11:58.659Z,3.85
2023-05-07T02:14:27.069Z,4.15
2023-05-07T02:16:54.432Z,3.40
2023-05-07T02:19:22.184Z,5.47
2023-05-07T02:21:49.590Z,3.85
2023-05-07T02:24:17.148Z,3.92
2023-05-07T02:26:44.504Z,3.25
2023-05-07T02:29:12.222Z,4.13
2023-05-07T02:31:39.652Z,3.67
2023-05-07T02:34:07.340Z,4.47
2023-05-07T02:36:34.579Z,3.40
2023-05-07T02:39:03.387Z,4.40
2023-05-07T02:41:30.802Z,4.22
2023-05-07T02:43:58.446Z,5.30
2023-05-07T02:46:26.670Z,4.95
2023-05-07T02:48:54.354Z,7.22
2023-05-07T02:51:24.131Z,7.60
2023-05-07T02:53:53.565Z,6.25
2023-05-07T02:56:20.842Z,7.20
2023-05-07T02:58:48.447Z,4.75
2023-05-07T03:01:16.069Z,5.10
2023-05-07T03:03:43.826Z,5.57
2023-05-07T03:06:11.429Z,5.50
2023-05-07T03:08:39.001Z,8.50
2023-05-07T03:11:06.321Z,7.95
2023-05-07T03:13:33.987Z,6.47
2023-05-07T03:16:01.575Z,6.15
2023-05-07T03:18:29.442Z,4.97
2023-05-07T03:20:56.874Z,5.90
2023-05-07T03:23:25.065Z,4.40
2023-05-07T03:25:52.661Z,4.88
2023-05-07T03:28:20.252Z,5.60
2023-05-07T03:30:47.617Z,8.15
2023-05-07T03:33:15.306Z,10.98
2023-05-07T03:35:42.743Z,8.57
2023-05-07T03:38:10.358Z,8.50
2023-05-07T03:40:37.704Z,9.77
2023-05-07T03:43:05.328Z,7.32
2023-05-07T03:45:32.651Z,5.72
2023-05-07T03:48:00.326Z,4.50
2023-05-07T03:50:27.672Z,4.30
2023-05-07T03:52:55.351Z,8.38
2023-05-07T03:55:22.852Z,6.50
2023-05-07T03:57:50.670Z,4.65
2023-05-07T04:00:18.070Z,5.25
2023-05-07T04:02:45.834Z,5.07
2023-05-07T04:05:14.282Z,3.95
2023-05-07T04:07:41.985Z,4.88
2023-05-07T04:10:09.991Z,4.22
2023-05-07T04:12:37.972Z,5.10
2023-05-07T04:15:05.651Z,4.35
2023-05-07T04:17:33.486Z,4.22
2023-05-07T04:20:00.960Z,4.95
2023-05-07T04:22:29.064Z,6.00
2023-05-07T04:24:56.709Z,14.68
2023-05-07T04:27:24.613Z,8.98
2023-05-07T04:29:52.641Z,7.25
2023-05-07T04:32:20.527Z,7.35
2023-05-07T04:34:47.951Z,6.32
2023-05-07T04:37:15.765Z,7.10
2023-05-07T04:39:43.301Z,6.03
2023-05-07T04:42:10.952Z,5.65
2023-05-07T04:44:38.263Z,4.47
2023-05-07T04:47:06.163Z,4.90
2023-05-07T04:49:33.501Z,5.32
2023-05-07T04:52:01.172Z,5.63
2023-05-07T04:54:28.523Z,4.55
2023-05-07T04:56:56.147Z,3.20
2023-05-07T04:59:23.568Z,3.22
2023-05-07T05:01:51.235Z,2.92
2023-05-07T05:04:18.617Z,3.25
2023-05-07T05:06:46.232Z,3.30
2023-05-07T05:09:13.703Z,3.20
2023-05-07T05:11:41.336Z,3.42
2023-05-07T05:14:08.825Z,3.22
2023-05-07T05:16:36.883Z,3.38
2023-05-07T05:19:04.613Z,2.70
2023-05-07T05:21:32.849Z,2.72
2023-05-07T05:24:00.797Z,3.28
2023-05-07T05:26:28.495Z,3.10
2023-05-07T05:28:55.975Z,3.03
2023-05-07T05:31:23.575Z,3.50
2023-05-07T05:33:50.930Z,3.00
2023-05-07T05:36:18.827Z,3.10
2023-05-07T05:38:46.123Z,2.60
2023-05-07T05:41:13.719Z,3.47
2023-05-07T05:43:41.030Z,2.58
2023-05-07T05:46:09.977Z,2.47
2023-05-07T05:48:36.960Z,3.20
2023-05-07T05:51:04.641Z,3.20
2023-05-07T05:53:32.034Z,3.75
2023-05-07T05:55:59.665Z,3.03
2023-05-07T05:58:27.062Z,4.55
2023-05-07T06:00:54.673Z,3.10
2023-05-07T06:03:22.026Z,3.28
2023-05-07T06:05:49.920Z,3.30
2023-05-07T06:08:18.231Z,2.97
2023-05-07T06:10:46.150Z,3.10
2023-05-07T06:13:13.486Z,2.88
2023-05-07T06:15:41.104Z,3.28
2023-05-07T06:18:08.680Z,2.90
2023-05-07T06:20:36.577Z,2.90
2023-05-07T06:23:03.891Z,3.28
2023-05-07T06:25:31.508Z,3.80
2023-05-07T06:27:58.892Z,2.80
2023-05-07T06:30:27.742Z,3.22
2023-05-07T06:32:55.099Z,2.97
2023-05-07T06:35:22.844Z,3.25
2023-05-07T06:37:50.188Z,3.03
2023-05-07T06:40:17.899Z,2.85
2023-05-07T06:42:45.311Z,3.10
2023-05-07T06:45:13.041Z,3.20
2023-05-07T06:47:40.393Z,3.22
2023-05-07T06:50:08.676Z,2.55
2023-05-07T06:52:36.444Z,2.75
2023-05-07T06:55:04.123Z,3.08
2023-05-07T06:57:31.471Z,2.97
2023-05-07T06:59:59.172Z,2.50
2023-05-07T07:02:26.790Z,2.47
2023-05-07T07:04:54.524Z,2.58
2023-05-07T07:07:22.112Z,2.75
2023-05-07T07:09:52.302Z,3.55
2023-05-07T07:12:19.667Z,3.10
2023-05-07T07:14:47.276Z,3.08
2023-05-07T07:17:14.597Z,2.35
2023-05-07T07:19:42.224Z,2.33
2023-05-07T07:22:09.588Z,3.22
2023-05-07T07:24:37.194Z,2.42
2023-05-07T07:27:04.457Z,2.15
2023-05-07T07:29:32.389Z,2.45
2023-05-07T07:31:59.809Z,2.35
2023-05-07T07:34:27.417Z,2.80
2023-05-07T07:36:54.744Z,2.38
2023-05-07T07:39:22.352Z,2.67
2023-05-07T07:41:49.669Z,2.60
2023-05-07T07:44:18.211Z,1.80
2023-05-07T07:46:45.641Z,1.90
2023-05-07T07:49:13.457Z,2.20
2023-05-07T07:51:41.027Z,1.92
2023-05-07T07:54:08.808Z,1.92
2023-05-07T07:56:36.404Z,2.30
2023-05-07T07:59:04.343Z,2.17
2023-05-07T08:01:32.017Z,1.98
2023-05-07T08:04:00.046Z,1.90
2023-05-07T08:06:28.043Z,1.60
2023-05-07T08:08:56.117Z,1.92
2023-05-07T08:11:23.597Z,1.95
2023-05-07T08:13:51.365Z,1.88
2023-05-07T08:16:18.726Z,1.60
2023-05-07T08:18:46.402Z,1.60
2023-05-07T08:21:13.785Z,1.70
2023-05-07T08:23:41.594Z,1.95
2023-05-07T08:26:09.572Z,1.50
2023-05-07T08:28:37.213Z,1.75
2023-05-07T08:31:04.582Z,2.70
2023-05-07T08:33:32.268Z,1.63
2023-05-07T08:35:59.585Z,1.70
2023-05-07T08:38:27.181Z,1.90
2023-05-07T08:40:54.496Z,1.63
2023-05-07T08:43:23.287Z,1.90
2023-05-07T08:45:51.150Z,1.30
2023-05-07T08:48:19.030Z,1.92
2023-05-07T08:50:46.576Z,1.25
2023-05-07T08:53:14.334Z,1.40
2023-05-07T08:55:41.706Z,1.50
2023-05-07T08:58:09.426Z,1.60
2023-05-07T09:00:38.193Z,1.42
2023-05-07T09:03:05.910Z,1.40
2023-05-07T09:05:33.279Z,1.40
2023-05-07T09:08:01.516Z,1.80
2023-05-07T09:10:28.931Z,1.65
2023-05-07T09:12:56.794Z,1.30
2023-05-07T09:15:24.203Z,1.40
2023-05-07T09:17:51.853Z,1.35
2023-05-07T09:20:19.239Z,1.42
2023-05-07T09:22:46.880Z,1.50
2023-05-07T09:25:14.471Z,1.42
2023-05-07T09:27:43.097Z,1.35
2023-05-07T09:30:11.074Z,1.58
2023-05-07T09:32:39.245Z,1.33
2023-05-07T09:35:07.128Z,1.48
2023-05-07T09:37:34.838Z,1.80
2023-05-07T09:40:02.311Z,1.88
2023-05-07T09:42:30.651Z,1.30
2023-05-07T09:44:58.259Z,1.65
2023-05-07T09:47:26.792Z,1.50
2023-05-07T09:49:58.784Z,2.13
2023-05-07T09:52:29.680Z,1.73
2023-05-07T09:55:00.314Z,1.63
2023-05-07T09:57:28.916Z,1.83
2023-05-07T09:59:58.212Z,1.58
2023-05-07T10:02:27.495Z,1.80
2023-05-07T10:04:56.098Z,1.60
2023-05-07T10:07:24.826Z,1.40
2023-05-07T10:09:52.532Z,1.33
2023-05-07T10:12:21.815Z,1.70
2023-05-07T10:14:49.465Z,1.70
2023-05-07T10:17:17.922Z,1.45
2023-05-07T10:19:46.031Z,1.63
2023-05-07T10:22:15.787Z,1.50
2023-05-07T10:24:44.743Z,1.70
2023-05-07T10:27:15.283Z,1.60
2023-05-07T10:29:45.796Z,1.55
2023-05-07T10:32:16.778Z,1.55
2023-05-07T10:34:47.814Z,1.48
2023-05-07T10:37:15.615Z,1.33
2023-05-07T10:39:43.180Z,1.50
2023-05-07T10:42:14.432Z,1.17
2023-05-07T10:44:42.256Z,1.63
2023-05-07T10:47:11.573Z,1.60
2023-05-07T10:49:48.260Z,1.52
2023-05-07T10:52:18.332Z,1.70
2023-05-07T10:54:46.702Z,1.58
2023-05-07T10:57:32.813Z,1.73
2023-05-07T11:00:00.387Z,1.70
2023-05-07T11:02:49.127Z,1.70
2023-05-07T11:05:22.694Z,1.80
2023-05-07T11:07:57.929Z,1.80
2023-05-07T11:10:45.508Z,1.50
2023-05-07T11:13:13.310Z,1.55
2023-05-07T11:15:43.071Z,1.65
2023-05-07T11:18:11.483Z,1.73
2023-05-07T11:20:53.125Z,1.63
2023-05-07T11:23:36.732Z,1.58
2023-05-07T11:26:04.916Z,2.30
2023-05-07T11:28:37.934Z,1.38
2023-05-07T11:31:05.709Z,1.88
2023-05-07T11:33:33.633Z,1.85
2023-05-07T11:36:04.735Z,2.35
2023-05-07T11:38:32.663Z,1.88
2023-05-07T11:41:01.772Z,2.22
2023-05-07T11:43:29.957Z,1.98
2023-05-07T11:46:07.120Z,1.77
2023-05-07T11:48:35.350Z,1.88
2023-05-07T11:51:03.893Z,2.08
2023-05-07T11:53:42.092Z,1.98
2023-05-07T11:56:10.337Z,1.73
2023-05-07T11:58:38.545Z,2.00
2023-05-07T12:01:06.426Z,1.67
2023-05-07T12:03:36.360Z,2.03
2023-05-07T12:06:04.513Z,2.20
2023-05-07T12:08:32.488Z,2.15
2023-05-07T12:11:00.764Z,1.90
2023-05-07T12:13:29.105Z,2.30
2023-05-07T12:15:59.836Z,1.90
2023-05-07T12:18:28.773Z,2.35
2023-05-07T12:20:56.755Z,2.30
2023-05-07T12:23:24.510Z,2.05
2023-05-07T12:25:52.250Z,1.98
2023-05-07T12:28:20.809Z,2.15
2023-05-07T12:30:49.467Z,2.00
2023-05-07T12:33:22.701Z,1.70
2023-05-07T12:35:51.159Z,2.72
2023-05-07T12:38:20.427Z,2.45
2023-05-07T12:40:52.535Z,2.10
2023-05-07T12:43:26.174Z,1.55
2023-05-07T12:45:55.893Z,2.40
2023-05-07T12:48:24.685Z,2.78
2023-05-07T12:50:52.951Z,1.73
2023-05-07T12:53:22.285Z,2.47
2023-05-07T12:55:50.304Z,1.77
2023-05-07T12:58:19.043Z,1.92
2023-05-07T13:00:48.857Z,3.38
2023-05-07T13:03:26.861Z,2.22
2023-05-07T13:05:58.478Z,2.13
2023-05-07T13:08:27.514Z,2.38
2023-05-07T13:10:54.965Z,1.95
2023-05-07T13:13:22.867Z,2.33
2023-05-07T13:15:50.674Z,2.78
2023-05-07T13:18:18.757Z,2.00
2023-05-07T13:20:46.387Z,2.33
2023-05-07T13:23:14.030Z,1.60
2023-05-07T13:25:41.337Z,1.98
2023-05-07T13:28:11.274Z,2.30
2023-05-07T13:30:39.003Z,2.67
2023-05-07T13:33:06.879Z,2.20
2023-05-07T13:35:34.574Z,2.92
2023-05-07T13:38:02.171Z,2.15
2023-05-07T13:40:29.551Z,2.33
2023-05-07T13:42:59.471Z,1.98
2023-05-07T13:45:27.861Z,2.53
2023-05-07T13:47:55.663Z,1.48
2023-05-07T13:50:23.054Z,2.42
2023-05-07T13:52:53.613Z,1.92
2023-05-07T13:55:23.995Z,1.75
2023-05-07T13:58:02.321Z,3.33
2023-05-07T14:00:30.393Z,2.70
2023-05-07T14:02:58.934Z,2.40
2023-05-07T14:05:27.652Z,4.47
2023-05-07T14:07:56.029Z,2.30
2023-05-07T14:10:23.425Z,3.30
2023-05-07T14:12:51.264Z,3.65
2023-05-07T14:15:18.748Z,2.95
2023-05-07T14:17:46.674Z,2.95
2023-05-07T14:20:14.530Z,2.25
2023-05-07T14:22:42.345Z,3.35
2023-05-07T14:25:10.803Z,2.75
2023-05-07T14:27:38.841Z,2.88
2023-05-07T14:30:06.596Z,3.55
2023-05-07T14:32:34.634Z,2.95
2023-05-07T14:35:02.069Z,3.60
2023-05-07T14:37:29.802Z,3.00
2023-05-07T14:39:57.120Z,3.65
2023-05-07T14:42:24.762Z,3.28
2023-05-07T14:44:53.810Z,3.92
2023-05-07T14:47:21.437Z,4.10
2023-05-07T14:49:48.785Z,4.97
2023-05-07T14:52:16.453Z,4.00
2023-05-07T14:54:43.973Z,5.07
2023-05-07T14:57:14.479Z,22.42
2023-05-07T14:59:42.425Z,12.30
2023-05-07T15:02:11.036Z,3.60
2023-05-07T15:04:39.383Z,14.70
2023-05-07T15:07:06.959Z,2.17
2023-05-07T15:09:34.295Z,2.83
2023-05-07T15:12:03.228Z,2.22
2023-05-07T15:14:30.503Z,2.83
2023-05-07T15:16:58.199Z,6.05
2023-05-07T15:19:29.821Z,7.45
2023-05-07T15:21:58.883Z,6.30
2023-05-07T15:24:26.204Z,2.35
2023-05-07T15:26:53.847Z,3.58
2023-05-07T15:29:21.286Z,2.10
2023-05-07T15:31:49.045Z,4.85
2023-05-07T15:34:16.599Z,4.53
2023-05-07T15:36:44.271Z,10.30
2023-05-07T15:39:11.768Z,5.38
2023-05-07T15:41:39.397Z,6.53
2023-05-07T15:44:06.761Z,9.05
2023-05-07T15:46:34.514Z,6.63
2023-05-07T15:49:06.620Z,3.63
2023-05-07T15:51:36.661Z,3.28
2023-05-07T15:54:04.107Z,4.47
2023-05-07T15:56:34.815Z,2.35
2023-05-07T15:59:02.658Z,3.60
2023-05-07T16:01:30.378Z,4.93
2023-05-07T16:03:57.894Z,3.00
2023-05-07T16:06:26.026Z,4.78
2023-05-07T16:08:53.402Z,5.00
2023-05-07T16:11:21.340Z,3.33
2023-05-07T16:13:48.678Z,2.33
2023-05-07T16:16:16.343Z,3.75
2023-05-07T16:18:43.687Z,5.47
2023-05-07T16:21:11.291Z,2.83
2023-05-07T16:23:38.594Z,3.97
2023-05-07T16:26:06.613Z,11.93
2023-05-07T16:28:33.949Z,4.15
2023-05-07T16:31:01.827Z,5.03
2023-05-07T16:33:29.104Z,4.47
2023-05-07T16:35:57.036Z,3.90
2023-05-07T16:38:24.574Z,3.78
2023-05-07T16:40:52.430Z,2.85
2023-05-07T16:43:19.790Z,4.28
2023-05-07T16:45:48.288Z,6.35
2023-05-07T16:48:15.774Z,9.30
2023-05-07T16:50:44.426Z,4.50
2023-05-07T16:53:12.270Z,13.55
2023-05-07T16:55:40.916Z,7.03
2023-05-07T16:58:09.967Z,47.42
2023-05-07T17:00:49.232Z,16.10
2023-05-07T17:03:18.303Z,17.13
2023-05-07T17:05:46.203Z,14.75
2023-05-07T17:08:14.165Z,3.95
2023-05-07T17:10:42.356Z,8.15
2023-05-07T17:13:09.820Z,3.85
2023-05-07T17:15:37.469Z,17.73
2023-05-07T17:18:04.900Z,8.35
2023-05-07T17:20:32.488Z,6.97
2023-05-07T17:22:59.783Z,6.00
2023-05-07T17:25:27.381Z,8.02
2023-05-07T17:27:54.848Z,20.52
2023-05-07T17:30:22.495Z,10.75
2023-05-07T17:32:50.054Z,6.70
2023-05-07T17:35:17.689Z,10.75
2023-05-07T17:37:52.110Z,8.85
2023-05-07T17:40:21.048Z,4.22
2023-05-07T17:42:49.179Z,4.55
2023-05-07T17:45:17.291Z,4.15
2023-05-07T17:47:44.676Z,3.80
2023-05-07T17:50:12.692Z,6.18
2023-05-07T17:52:41.360Z,7.15
2023-05-07T17:55:09.340Z,6.60
2023-05-07T17:57:36.955Z,6.15
2023-05-07T18:00:07.665Z,3.45
2023-05-07T18:02:35.089Z,2.80
2023-05-07T18:05:03.202Z,2.90
2023-05-07T18:07:30.656Z,2.63
2023-05-07T18:09:58.211Z,2.78
2023-05-07T18:12:26.904Z,2.90
2023-05-07T18:14:55.214Z,2.03
2023-05-07T18:17:24.200Z,2.10
2023-05-07T18:19:54.676Z,2.58
2023-05-07T18:22:22.412Z,2.45
2023-05-07T18:24:50.962Z,2.38
2023-05-07T18:27:18.703Z,3.10
2023-05-07T18:29:46.309Z,3.05
2023-05-07T18:32:14.146Z,3.03
2023-05-07T18:34:41.970Z,2.97
2023-05-07T18:37:09.275Z,3.03
2023-05-07T18:39:37.173Z,2.72
2023-05-07T18:42:08.593Z,2.28
2023-05-07T18:44:38.378Z,2.53
2023-05-07T18:47:06.144Z,2.95
2023-05-07T18:49:34.360Z,2.28
2023-05-07T18:52:01.985Z,2.10
2023-05-07T18:54:29.632Z,3.05
2023-05-07T18:56:56.934Z,2.65
2023-05-07T18:59:24.558Z,3.40
2023-05-07T19:01:52.126Z,2.97
2023-05-07T19:04:20.284Z,4.88
2023-05-07T19:06:47.724Z,12.02
2023-05-07T19:09:15.333Z,14.20
2023-05-07T19:11:42.872Z,10.60
2023-05-07T19:14:11.069Z,7.90
2023-05-07T19:16:38.652Z,8.18
2023-05-07T19:19:06.662Z,4.65
2023-05-07T19:21:34.002Z,4.22
2023-05-07T19:24:01.594Z,4.78
2023-05-07T19:26:28.976Z,4.18
2023-05-07T19:29:12.448Z,5.15
2023-05-07T19:31:44.513Z,5.07
2023-05-07T19:34:13.914Z,4.65
2023-05-07T19:36:41.358Z,4.82
2023-05-07T19:39:08.967Z,5.38
2023-05-07T19:41:36.311Z,4.20
2023-05-07T19:44:03.948Z,4.70
2023-05-07T19:46:31.287Z,4.75
2023-05-07T19:48:58.899Z,4.30
2023-05-07T19:51:26.422Z,4.07
2023-05-07T19:53:54.062Z,6.03
2023-05-07T19:56:22.504Z,4.90
2023-05-07T19:58:50.935Z,5.10
2023-05-07T20:01:18.238Z,4.22
2023-05-07T20:03:46.565Z,5.93
2023-05-07T20:06:14.276Z,4.20
2023-05-07T20:08:43.330Z,5.13
2023-05-07T20:11:11.489Z,5.53
2023-05-07T20:13:39.276Z,5.13
2023-05-07T20:16:06.654Z,5.43
2023-05-07T20:18:34.306Z,4.95
2023-05-07T20:21:01.795Z,5.85
2023-05-07T20:23:29.403Z,6.97
2023-05-07T20:25:57.924Z,6.75
2023-05-07T20:28:26.255Z,7.15
2023-05-07T20:30:53.612Z,8.88
2023-05-07T20:33:21.851Z,4.57
2023-05-07T20:35:49.170Z,5.57
2023-05-07T20:38:16.787Z,4.80
2023-05-07T20:40:44.264Z,4.60
2023-05-07T20:43:12.467Z,4.50
2023-05-07T20:45:39.935Z,5.05
2023-05-07T20:48:07.626Z,6.28
2023-05-07T20:50:35.026Z,3.75
2023-05-07T20:53:02.614Z,4.40
2023-05-07T20:55:29.975Z,4.80
2023-05-07T20:57:57.588Z,4.25
2023-05-07T21:00:24.921Z,4.57
2023-05-07T21:02:53.277Z,5.03
2023-05-07T21:05:20.829Z,5.32
2023-05-07T21:07:48.452Z,5.82
2023-05-07T21:10:15.797Z,6.07
2023-05-07T21:12:43.505Z,5.53
2023-05-07T21:15:11.232Z,4.20
2023-05-07T21:17:38.851Z,12.77
2023-05-07T21:20:06.593Z,6.60
2023-05-07T21:22:34.285Z,4.78
2023-05-07T21:25:01.663Z,4.35
2023-05-07T21:27:29.857Z,5.47
2023-05-07T21:30:03.277Z,19.08
2023-05-07T21:32:31.095Z,7.07
2023-05-07T21:34:59.991Z,18.75
2023-05-07T21:37:27.617Z,5.07
2023-05-07T21:39:55.048Z,5.07
2023-05-07T21:42:23.346Z,5.53
2023-05-07T21:44:51.026Z,8.75
2023-05-07T21:47:18.675Z,6.72
2023-05-07T21:49:46.155Z,7.38
2023-05-07T21:52:14.328Z,5.70
2023-05-07T21:54:41.723Z,4.03
2023-05-07T21:57:09.927Z,4.40
2023-05-07T21:59:37.488Z,4.20
2023-05-07T22:02:05.579Z,5.32
2023-05-07T22:04:32.879Z,8.98
2023-05-07T22:07:00.576Z,27.75
2023-05-07T22:09:27.846Z,39.42
2023-05-07T22:11:55.406Z,31.27
2023-05-07T22:14:22.713Z,9.85
2023-05-07T22:16:50.350Z,6.30
2023-05-07T22:19:17.809Z,6.32
2023-05-07T22:21:45.381Z,5.47
2023-05-07T22:24:12.830Z,4.50
2023-05-07T22:26:40.490Z,4.38
2023-05-07T22:29:07.809Z,5.20
2023-05-07T22:31:35.488Z,6.07
2023-05-07T22:34:02.862Z,5.50
2023-05-07T22:36:30.442Z,4.97
2023-05-07T22:38:57.786Z,4.88
2023-05-07T22:41:25.609Z,5.45
2023-05-07T22:43:52.939Z,5.53
2023-05-07T22:46:20.598Z,4.35
2023-05-07T22:48:47.973Z,4.80
2023-05-07T22:51:15.574Z,5.95
2023-05-07T22:53:42.948Z,5.15
2023-05-07T22:56:10.647Z,4.63
2023-05-07T22:58:37.924Z,5.20
2023-05-07T23:01:12.021Z,4.30
2023-05-07T23:03:39.830Z,5.07
2023-05-07T23:06:07.518Z,5.28
2023-05-07T23:08:35.220Z,4.05
2023-05-07T23:11:02.828Z,4.53
2023-05-07T23:13:30.201Z,5.15
2023-05-07T23:15:58.877Z,5.15
2023-05-07T23:18:28.016Z,4.97
2023-05-07T23:20:55.984Z,4.03
2023-05-07T23:23:23.300Z,3.80
2023-05-07T23:25:53.918Z,4.72
2023-05-07T23:28:21.198Z,3.83
2023-05-07T23:30:48.828Z,4.47
2023-05-07T23:33:16.183Z,4.35
2023-05-07T23:35:43.820Z,4.47
2023-05-07T23:38:11.114Z,4.45
2023-05-07T23:40:38.691Z,4.55
2023-05-07T23:43:05.937Z,4.03
2023-05-07T23:45:33.565Z,4.07
2023-05-07T23:48:00.970Z,4.68
2023-05-07T23:50:28.617Z,4.57
2023-05-07T23:52:55.985Z,4.13
2023-05-07T23:55:23.531Z,4.70
2023-05-07T23:57:50.911Z,4.78
